METAR és
SPECI
METAR LHBP 281730Z 31012KT CAVOK 10/M01 Q1013 NOSIG=
METAR LHBP 281700Z 32010KT CAVOK 10/M00 Q1013 NOSIG=
METAR LHBP 281630Z 32012KT CAVOK 11/00 Q1013 NOSIG=
METAR LHBP 281600Z 31014KT CAVOK 11/01 Q1013 NOSIG=
METAR LHBP 281530Z 31015KT CAVOK 11/00 Q1013 NOSIG=
METAR LHBP 281500Z 31017KT CAVOK 11/00 Q1013 NOSIG=
TAF
TAF LHBP 281700Z 2818/2918 34010KT CAVOK BECMG 2821/2823 30006KT BECMG 2908/2911 27010KT TEMPO 2911/2918 SCT040 BKN060=
GAMET
FAHU41 LHBM 281100
LHCC GAMET VALID 281200/281800 LHBP-
LHCC BUDAPEST FIR BLW FL100
SECN I
ICE: MOD 6500/10000 FT AMSL E OF E01900
TURB: MOD SFC/6000 FT AMSL W OF E01900
MOD SFC/5000 FT AMSL E OF E02000
SIGMETS APPLICABLE: NIL=
OMSZ: 2015. március 28. 11:56 (10:56  UTC)
[FAHU41]
AIRMET
Nincs érvényes távirat! 
WAHU41 LHBM 151445
LHCC AIRMET 01 VALID 151445/151800 LHBP-
LHCC BUDAPEST FIR ISOL TCU 2500-3500/XXX FT OBS SE OF LINE
N4614 E01658 - N4801 E01849 MOV NW WKN=
SIGMET
Nincs érvényes távirat! 
WSHU31 LHBM 272110
LHCC SIGMET 02 VALID 272110/280110 LHBP-
LHCC BUDAPEST FIR SEV TURB FCST W OF E01850 5000FT/FL100
STNR WKN=
SIGMET
Vulkáni hamufelhő
Nincs érvényes távirat! 
WVHU31 LHBM 271515 CCA
LHCC SIGMET 03 VALID 271515/271800 LHBP-
LHCC BUDAPEST FIR EXERCISE VOLCEX12/01
CNL VA SIGMET 02 271200/271800
EXERCISE EXERCISE EXERCISE VOLCEX12/01=